createdAt,value
2018-05-02T00:00:15.458Z,14.30
2018-05-02T00:02:43.427Z,14.30
2018-05-02T00:05:11.506Z,14.30
2018-05-02T00:07:39.477Z,14.30
2018-05-02T00:10:07.444Z,14.30
2018-05-02T00:12:36.951Z,14.30
2018-05-02T00:15:04.905Z,14.30
2018-05-02T00:17:32.801Z,14.30
2018-05-02T00:20:01.559Z,14.30
2018-05-02T00:22:29.529Z,14.30
2018-05-02T00:24:57.497Z,14.30
2018-05-02T00:27:25.478Z,14.30
2018-05-02T00:29:53.438Z,14.30
2018-05-02T00:32:21.410Z,14.30
2018-05-02T00:34:50.203Z,14.30
2018-05-02T00:37:18.161Z,14.30
2018-05-02T00:39:46.141Z,14.30
2018-05-02T00:42:14.098Z,14.30
2018-05-02T00:44:42.068Z,14.30
2018-05-02T00:47:10.039Z,14.30
2018-05-02T00:49:38.005Z,14.30
2018-05-02T00:52:05.978Z,14.30
2018-05-02T00:54:33.954Z,14.20
2018-05-02T00:57:01.911Z,14.20
2018-05-02T00:59:29.884Z,14.20
2018-05-02T01:01:57.861Z,14.20
2018-05-02T01:04:25.831Z,14.20
2018-05-02T01:06:54.618Z,14.20
2018-05-02T01:09:22.580Z,14.20
2018-05-02T01:11:52.084Z,14.20
2018-05-02T01:14:20.049Z,14.20
2018-05-02T01:16:48.019Z,14.20
2018-05-02T01:19:15.997Z,14.20
2018-05-02T01:21:43.958Z,14.20
2018-05-02T01:24:11.923Z,14.20
2018-05-02T01:26:39.894Z,14.20
2018-05-02T01:29:07.861Z,14.20
2018-05-02T01:31:35.831Z,14.20
2018-05-02T01:34:03.814Z,14.20
2018-05-02T01:36:31.772Z,14.20
2018-05-02T01:38:59.848Z,14.20
2018-05-02T01:41:28.639Z,14.20
2018-05-02T01:43:56.601Z,14.10
2018-05-02T01:46:24.671Z,14.20
2018-05-02T01:49:04.285Z,14.20
2018-05-02T01:51:32.294Z,14.20
2018-05-02T01:54:00.248Z,14.10
2018-05-02T01:56:28.229Z,14.20
2018-05-02T01:58:56.201Z,14.20
2018-05-02T02:01:24.156Z,14.20
2018-05-02T02:03:52.124Z,14.10
2018-05-02T02:06:20.096Z,14.10
2018-05-02T02:08:48.061Z,14.10
2018-05-02T02:11:16.039Z,14.10
2018-05-02T02:13:44.005Z,14.10
2018-05-02T02:16:11.970Z,14.10
2018-05-02T02:18:39.936Z,14.10
2018-05-02T02:21:07.911Z,14.10
2018-05-02T02:23:35.887Z,14.10
2018-05-02T02:26:03.844Z,14.10
2018-05-02T02:28:31.917Z,14.10
2018-05-02T02:30:59.987Z,14.10
2018-05-02T02:33:27.918Z,14.10
2018-05-02T02:35:55.925Z,14.10
2018-05-02T02:38:23.892Z,14.10
2018-05-02T02:40:51.864Z,14.10
2018-05-02T02:43:19.830Z,14.10
2018-05-02T02:45:47.819Z,14.10
2018-05-02T02:48:15.884Z,14.10
2018-05-02T02:50:43.953Z,14.10
2018-05-02T02:53:11.912Z,14.10
2018-05-02T02:55:39.882Z,14.10
2018-05-02T02:58:07.860Z,14.10
2018-05-02T03:00:35.820Z,14.10
2018-05-02T03:03:03.799Z,14.10
2018-05-02T03:05:31.755Z,14.10
2018-05-02T03:07:59.729Z,14.10
2018-05-02T03:10:28.512Z,14.10
2018-05-02T03:12:56.494Z,14.10
2018-05-02T03:15:24.454Z,14.10
2018-05-02T03:17:52.430Z,14.10
2018-05-02T03:20:20.387Z,14.00
2018-05-02T03:22:48.355Z,14.00
2018-05-02T03:25:16.339Z,14.00
2018-05-02T03:27:44.298Z,14.00
2018-05-02T03:30:12.263Z,14.00
2018-05-02T03:32:40.243Z,14.00
2018-05-02T03:35:08.213Z,13.90
2018-05-02T03:37:36.168Z,13.90
2018-05-02T03:40:04.239Z,13.90
2018-05-02T03:42:32.214Z,13.90
2018-05-02T03:45:00.177Z,13.90
2018-05-02T03:47:28.150Z,13.90
2018-05-02T03:49:56.115Z,13.80
2018-05-02T03:52:24.092Z,13.80
2018-05-02T03:54:52.171Z,13.80
2018-05-02T03:57:20.229Z,13.80
2018-05-02T04:00:00.181Z,13.70
2018-05-02T04:02:40.129Z,13.70
2018-05-02T04:08:09.401Z,13.60
2018-05-02T04:10:37.317Z,13.60
2018-05-02T04:13:05.392Z,13.60
2018-05-02T04:15:33.352Z,13.60
2018-05-02T04:18:01.424Z,13.60
2018-05-02T04:20:29.404Z,13.60
2018-05-02T04:22:57.364Z,13.60
2018-05-02T04:25:25.331Z,13.60
2018-05-02T04:27:53.413Z,13.60
2018-05-02T04:30:21.383Z,13.60
2018-05-02T04:32:49.352Z,13.60
2018-05-02T04:35:17.312Z,13.60
2018-05-02T04:37:45.391Z,13.60
2018-05-02T04:40:13.360Z,13.60
2018-05-02T04:42:41.317Z,13.50
2018-05-02T04:45:09.230Z,13.50
2018-05-02T04:47:37.157Z,13.50
2018-05-02T04:50:05.236Z,13.50
2018-05-02T04:52:33.197Z,13.50
2018-05-02T04:55:01.173Z,13.60
2018-05-02T04:57:29.237Z,13.60
2018-05-02T04:59:57.213Z,13.60
2018-05-02T05:02:25.277Z,13.60
2018-05-02T05:04:53.253Z,13.60
2018-05-02T05:07:21.215Z,13.60
2018-05-02T05:09:49.191Z,13.70
2018-05-02T05:12:17.183Z,13.70
2018-05-02T05:14:45.936Z,13.70
2018-05-02T05:17:13.907Z,13.70
2018-05-02T05:19:41.876Z,13.70
2018-05-02T05:22:09.956Z,13.70
2018-05-02T05:24:37.918Z,13.70
2018-05-02T05:27:05.881Z,13.70
2018-05-02T05:29:33.856Z,13.70
2018-05-02T05:32:01.923Z,13.70
2018-05-02T05:34:29.903Z,13.80
2018-05-02T05:36:57.865Z,13.80
2018-05-02T05:39:25.843Z,13.80
2018-05-02T05:41:53.804Z,13.80
2018-05-02T05:44:21.768Z,13.80
2018-05-02T05:46:49.736Z,13.80
2018-05-02T05:49:17.717Z,13.90
2018-05-02T05:51:45.675Z,13.90
2018-05-02T05:54:13.720Z,13.90
2018-05-02T05:56:41.611Z,13.90
2018-05-02T05:59:09.584Z,13.90
2018-05-02T06:01:37.548Z,13.90
2018-05-02T06:04:05.633Z,13.90
2018-05-02T06:06:33.590Z,13.90
2018-05-02T06:09:01.559Z,13.90
2018-05-02T06:11:29.642Z,13.90
2018-05-02T06:13:57.599Z,13.90
2018-05-02T06:16:25.568Z,13.80
2018-05-02T06:18:53.537Z,13.90
2018-05-02T06:21:21.518Z,13.90
2018-05-02T06:23:49.591Z,13.90
2018-05-02T06:26:17.635Z,13.90
2018-05-02T06:28:45.629Z,13.90
2018-05-02T06:31:13.598Z,13.90
2018-05-02T06:33:41.670Z,13.90
2018-05-02T06:36:09.626Z,13.90
2018-05-02T06:38:37.597Z,13.90
2018-05-02T06:41:05.564Z,13.90
2018-05-02T06:43:33.535Z,13.90
2018-05-02T06:46:01.616Z,13.90
2018-05-02T06:48:29.496Z,13.90
2018-05-02T06:50:58.258Z,13.90
2018-05-02T06:53:26.227Z,13.90
2018-05-02T06:55:54.199Z,13.90
2018-05-02T06:58:22.165Z,13.90
2018-05-02T07:00:50.228Z,13.90
2018-05-02T07:03:18.208Z,13.90
2018-05-02T07:05:46.890Z,14.00
2018-05-02T07:08:16.307Z,14.00
2018-05-02T07:10:44.274Z,14.00
2018-05-02T07:13:13.053Z,14.00
2018-05-02T07:15:43.699Z,14.00
2018-05-02T07:18:11.867Z,14.00
2018-05-02T07:20:39.830Z,14.00
2018-05-02T07:23:07.794Z,14.00
2018-05-02T07:25:35.767Z,14.00
2018-05-02T07:28:03.845Z,14.00
2018-05-02T07:30:31.847Z,14.00
2018-05-02T07:32:59.938Z,14.10
2018-05-02T07:35:27.944Z,14.10
2018-05-02T07:37:56.131Z,14.20
2018-05-02T07:40:24.087Z,14.10
2018-05-02T07:42:52.060Z,14.20
2018-05-02T07:45:20.029Z,14.20
2018-05-02T07:47:47.995Z,14.20
2018-05-02T07:50:16.084Z,14.20
2018-05-02T07:52:44.034Z,14.20
2018-05-02T07:55:12.116Z,14.20
2018-05-02T07:57:40.073Z,14.30
2018-05-02T08:00:08.055Z,14.30
2018-05-02T08:02:36.228Z,14.30
2018-05-02T08:05:04.188Z,14.40
2018-05-02T08:07:32.267Z,14.40
2018-05-02T08:10:00.340Z,14.40
2018-05-02T08:12:28.410Z,14.40
2018-05-02T08:14:56.366Z,14.50
2018-05-02T08:17:24.450Z,14.50
2018-05-02T08:19:52.412Z,14.50
2018-05-02T08:22:20.388Z,14.50
2018-05-02T08:24:48.356Z,14.50
2018-05-02T08:27:16.316Z,14.60
2018-05-02T08:29:44.285Z,14.60
2018-05-02T08:32:18.900Z,14.60
2018-05-02T08:34:46.877Z,14.60
2018-05-02T08:37:14.855Z,14.70
2018-05-02T08:39:42.819Z,14.70
2018-05-02T08:42:10.786Z,14.70
2018-05-02T08:44:38.754Z,14.70
2018-05-02T08:47:06.835Z,14.70
2018-05-02T08:49:34.906Z,14.70
2018-05-02T08:52:02.863Z,14.70
2018-05-02T08:54:30.832Z,14.70
2018-05-02T08:56:58.801Z,14.80
2018-05-02T08:59:27.600Z,14.80
2018-05-02T09:01:55.639Z,14.80
2018-05-02T09:04:23.642Z,14.90
2018-05-02T09:06:51.700Z,14.90
2018-05-02T09:09:19.673Z,15.00
2018-05-02T09:11:47.650Z,15.10
2018-05-02T09:14:15.721Z,15.20
2018-05-02T09:16:43.678Z,15.20
2018-05-02T09:19:11.648Z,15.30
2018-05-02T09:21:39.616Z,15.30
2018-05-02T09:24:07.585Z,15.30
2018-05-02T09:26:35.559Z,15.40
2018-05-02T09:29:04.317Z,15.40
2018-05-02T09:31:32.313Z,15.50
2018-05-02T09:34:00.965Z,15.50
2018-05-02T09:36:28.971Z,15.50
2018-05-02T09:38:56.934Z,15.60
2018-05-02T09:41:25.024Z,15.60
2018-05-02T09:43:53.907Z,15.70
2018-05-02T09:46:21.869Z,15.70
2018-05-02T09:48:49.940Z,15.70
2018-05-02T09:51:17.905Z,15.70
2018-05-02T09:53:45.876Z,15.80
2018-05-02T09:56:14.149Z,15.80
2018-05-02T09:58:42.120Z,15.80
2018-05-02T10:01:10.092Z,15.80
2018-05-02T10:03:38.259Z,15.80
2018-05-02T10:06:06.235Z,15.80
2018-05-02T10:08:34.201Z,15.90
2018-05-02T10:11:02.169Z,15.90
2018-05-02T10:13:30.250Z,15.90
2018-05-02T10:15:58.211Z,16.00
2018-05-02T10:18:26.231Z,16.00
2018-05-02T10:20:55.896Z,16.00
2018-05-02T10:23:23.854Z,16.10
2018-05-02T10:25:51.822Z,16.10
2018-05-02T10:28:19.795Z,16.20
2018-05-02T10:30:47.760Z,16.40
2018-05-02T10:33:15.735Z,16.50
2018-05-02T10:35:43.710Z,16.60
2018-05-02T10:38:12.386Z,16.80
2018-05-02T10:40:40.456Z,16.70
2018-05-02T10:43:08.535Z,16.80
2018-05-02T10:45:36.398Z,16.90
2018-05-02T10:48:04.364Z,16.90
2018-05-02T10:50:32.392Z,16.90
2018-05-02T10:53:00.407Z,16.90
2018-05-02T10:55:28.383Z,16.90
2018-05-02T10:57:56.354Z,17.00
2018-05-02T11:00:25.026Z,17.10
2018-05-02T11:02:53.006Z,17.10
2018-05-02T11:05:20.963Z,17.20
2018-05-02T11:07:48.944Z,17.20
2018-05-02T11:10:17.005Z,17.30
2018-05-02T11:12:45.089Z,17.30
2018-05-02T11:15:14.595Z,17.40
2018-05-02T11:17:42.664Z,17.40
2018-05-02T11:20:12.153Z,17.50
2018-05-02T11:22:40.130Z,17.50
2018-05-02T11:25:08.105Z,17.60
2018-05-02T11:27:37.599Z,17.60
2018-05-02T11:30:05.688Z,17.60
2018-05-02T11:32:33.642Z,17.70
2018-05-02T11:35:01.607Z,17.70
2018-05-02T11:37:29.690Z,17.80
2018-05-02T11:39:57.662Z,17.80
2018-05-02T11:42:26.448Z,18.10
2018-05-02T11:44:54.409Z,18.10
2018-05-02T11:47:23.192Z,18.80
2018-05-02T11:49:51.161Z,18.70
2018-05-02T11:52:19.135Z,19.00
2018-05-02T11:54:48.645Z,19.20
2018-05-02T11:57:17.321Z,19.10
2018-05-02T11:59:45.305Z,19.10
2018-05-02T12:02:13.258Z,19.10
2018-05-02T12:04:41.227Z,18.90
2018-05-02T12:07:09.210Z,18.90
2018-05-02T12:09:37.267Z,19.00
2018-05-02T12:12:05.236Z,19.10
2018-05-02T12:14:33.204Z,19.20
2018-05-02T12:17:01.185Z,19.20
2018-05-02T12:19:30.686Z,19.40
2018-05-02T12:21:58.710Z,19.30
2018-05-02T12:24:26.615Z,19.50
2018-05-02T12:26:54.590Z,19.50
2018-05-02T12:29:22.570Z,19.50
2018-05-02T12:31:51.341Z,19.40
2018-05-02T12:34:19.314Z,19.40
2018-05-02T12:36:48.116Z,19.20
2018-05-02T12:39:16.067Z,19.20
2018-05-02T12:41:44.050Z,19.10
2018-05-02T12:44:12.006Z,19.10
2018-05-02T12:46:40.115Z,19.00
2018-05-02T12:49:08.147Z,18.90
2018-05-02T12:51:36.120Z,18.90
2018-05-02T12:54:04.188Z,18.80
2018-05-02T12:56:32.975Z,18.70
2018-05-02T12:59:00.944Z,18.70
2018-05-02T13:01:28.924Z,18.80
2018-05-02T13:03:58.418Z,18.80
2018-05-02T13:06:26.388Z,18.80
2018-05-02T13:08:54.368Z,18.80
2018-05-02T13:11:23.045Z,18.80
2018-05-02T13:13:51.022Z,18.80
2018-05-02T13:16:19.801Z,18.80
2018-05-02T13:18:47.771Z,18.80
2018-05-02T13:21:15.741Z,18.70
2018-05-02T13:23:43.705Z,18.70
2018-05-02T13:26:11.676Z,18.70
2018-05-02T13:28:39.654Z,18.70
2018-05-02T13:31:09.151Z,18.70
2018-05-02T13:33:37.936Z,18.70
2018-05-02T13:36:05.904Z,18.70
2018-05-02T13:38:33.875Z,18.60
2018-05-02T13:41:02.562Z,18.50
2018-05-02T13:43:30.540Z,18.50
2018-05-02T13:45:58.508Z,18.40
2018-05-02T13:48:27.298Z,18.40
2018-05-02T13:50:55.254Z,18.30
2018-05-02T13:53:23.233Z,18.30
2018-05-02T13:55:51.203Z,18.30
2018-05-02T13:58:19.172Z,18.30
2018-05-02T14:00:48.667Z,18.30
2018-05-02T14:03:16.637Z,18.30
2018-05-02T14:05:44.602Z,18.30
2018-05-02T14:08:12.608Z,18.30
2018-05-02T14:10:41.359Z,18.30
2018-05-02T14:13:09.328Z,18.30
2018-05-02T14:15:37.302Z,18.30
2018-05-02T14:18:05.270Z,18.30
2018-05-02T14:20:33.239Z,18.30
2018-05-02T14:23:02.034Z,18.30
2018-05-02T14:25:29.991Z,18.30
2018-05-02T14:27:57.973Z,18.40
2018-05-02T14:30:25.934Z,18.40
2018-05-02T14:32:53.935Z,18.40
2018-05-02T14:35:22.686Z,18.40
2018-05-02T14:37:50.667Z,18.40
2018-05-02T14:40:18.628Z,18.50
2018-05-02T14:42:46.592Z,18.40
2018-05-02T14:45:14.563Z,18.50
2018-05-02T14:47:43.355Z,18.50
2018-05-02T14:50:12.143Z,18.50
2018-05-02T14:52:40.119Z,18.50
2018-05-02T14:55:09.612Z,18.50
2018-05-02T14:57:37.593Z,18.50
2018-05-02T15:00:06.372Z,18.60
2018-05-02T15:02:34.339Z,18.50
2018-05-02T15:05:02.308Z,18.50
2018-05-02T15:07:30.291Z,18.60
2018-05-02T15:09:58.359Z,18.60
2018-05-02T15:12:26.328Z,18.60
2018-05-02T15:14:55.001Z,18.70
2018-05-02T15:17:22.968Z,18.70
2018-05-02T15:19:50.939Z,18.70
2018-05-02T15:22:18.907Z,18.60
2018-05-02T15:24:47.005Z,18.60
2018-05-02T15:27:15.670Z,18.50
2018-05-02T15:29:43.646Z,18.50
2018-05-02T15:32:11.716Z,18.50
2018-05-02T15:34:40.491Z,18.50
2018-05-02T15:37:08.474Z,18.50
2018-05-02T15:39:37.149Z,18.50
2018-05-02T15:42:05.120Z,18.50
2018-05-02T15:44:33.098Z,18.50
2018-05-02T15:47:01.000Z,18.50
2018-05-02T15:49:28.850Z,18.50
2018-05-02T15:51:57.531Z,18.30
2018-05-02T15:54:25.579Z,18.30
2018-05-02T15:56:53.548Z,18.30
2018-05-02T15:59:21.514Z,18.30
2018-05-02T16:01:49.494Z,18.20
2018-05-02T16:04:18.269Z,18.10
2018-05-02T16:06:46.241Z,18.10
2018-05-02T16:09:14.219Z,18.10
2018-05-02T16:11:42.994Z,18.00
2018-05-02T16:14:10.975Z,18.00
2018-05-02T16:16:40.468Z,17.80
2018-05-02T16:19:08.440Z,17.80
2018-05-02T16:21:36.406Z,17.90
2018-05-02T16:24:04.375Z,17.80
2018-05-02T16:26:32.460Z,17.70
2018-05-02T16:29:00.420Z,17.70
2018-05-02T16:31:29.926Z,17.60
2018-05-02T16:33:57.889Z,17.60
2018-05-02T16:36:25.708Z,17.60
2018-05-02T16:38:53.649Z,17.60
2018-05-02T16:41:21.712Z,17.50
2018-05-02T16:43:49.671Z,17.50
2018-05-02T16:46:18.463Z,17.40
2018-05-02T16:48:46.420Z,17.40
2018-05-02T16:51:14.390Z,17.40
2018-05-02T16:53:42.370Z,17.30
2018-05-02T16:56:11.975Z,17.20
2018-05-02T16:58:40.756Z,17.20
2018-05-02T17:01:08.733Z,17.20
2018-05-02T17:03:37.509Z,17.10
2018-05-02T17:06:05.482Z,17.10
2018-05-02T17:08:34.996Z,17.00
2018-05-02T17:11:03.772Z,17.00
2018-05-02T17:13:31.752Z,17.00
2018-05-02T17:16:00.530Z,17.00
2018-05-02T17:18:28.510Z,17.00
2018-05-02T17:20:56.471Z,17.00
2018-05-02T17:23:24.433Z,17.00
2018-05-02T17:25:52.403Z,16.90
2018-05-02T17:28:20.494Z,16.90
2018-05-02T17:30:49.268Z,16.90
2018-05-02T17:33:17.243Z,16.90
2018-05-02T17:35:45.926Z,16.80
2018-05-02T17:38:15.425Z,16.80
2018-05-02T17:40:43.389Z,16.80
2018-05-02T17:43:11.468Z,16.80
2018-05-02T17:45:40.152Z,16.70
2018-05-02T17:48:08.132Z,16.70
2018-05-02T17:50:36.903Z,16.70
2018-05-02T17:53:04.879Z,16.70
2018-05-02T17:55:33.673Z,16.70
2018-05-02T17:58:02.346Z,16.60
2018-05-02T18:00:30.318Z,16.60
2018-05-02T18:02:58.287Z,16.60
2018-05-02T18:05:26.256Z,16.60
2018-05-02T18:07:54.223Z,16.60
2018-05-02T18:10:22.210Z,16.50
2018-05-02T18:12:50.160Z,16.50
2018-05-02T18:15:18.128Z,16.50
2018-05-02T18:17:46.102Z,16.50
2018-05-02T18:20:14.886Z,16.50
2018-05-02T18:22:42.890Z,16.50
2018-05-02T18:25:10.937Z,16.40
2018-05-02T18:27:39.715Z,16.40
2018-05-02T18:30:07.687Z,16.40
2018-05-02T18:32:35.765Z,16.30
2018-05-02T18:35:04.546Z,16.30
2018-05-02T18:37:32.522Z,16.30
2018-05-02T18:40:00.602Z,16.30
2018-05-02T18:42:28.551Z,16.30
2018-05-02T18:44:56.532Z,16.20
2018-05-02T18:47:24.602Z,16.20
2018-05-02T18:49:52.663Z,16.20
2018-05-02T18:52:20.630Z,16.20
2018-05-02T18:54:48.602Z,16.10
2018-05-02T18:57:16.674Z,16.10
2018-05-02T18:59:44.652Z,16.20
2018-05-02T19:02:12.613Z,16.10
2018-05-02T19:04:40.583Z,16.10
2018-05-02T19:07:08.661Z,16.10
2018-05-02T19:09:37.337Z,16.10
2018-05-02T19:12:05.302Z,16.00
2018-05-02T19:14:33.275Z,16.00
2018-05-02T19:17:01.241Z,16.00
2018-05-02T19:19:34.719Z,16.00
2018-05-02T19:22:02.708Z,16.00
2018-05-02T19:24:36.167Z,15.90
2018-05-02T19:27:04.178Z,16.00
2018-05-02T19:29:32.208Z,15.90
2018-05-02T19:32:05.785Z,15.90
2018-05-02T19:34:34.544Z,15.90
2018-05-02T19:37:02.501Z,15.90
2018-05-02T19:39:30.586Z,15.90
2018-05-02T19:44:59.841Z,15.90
2018-05-02T19:47:27.766Z,15.90
2018-05-02T19:49:55.649Z,15.80
2018-05-02T19:52:29.139Z,15.80
2018-05-02T19:54:57.034Z,15.80
2018-05-02T19:57:25.648Z,15.80
2018-05-02T19:59:53.512Z,15.80
2018-05-02T20:02:27.070Z,15.80
2018-05-02T20:04:55.762Z,15.70
2018-05-02T20:07:42.131Z,15.70
2018-05-02T20:10:15.592Z,15.70
2018-05-02T20:12:49.179Z,15.70
2018-05-02T20:15:17.201Z,15.60
2018-05-02T20:17:45.169Z,15.60
2018-05-02T20:20:13.134Z,15.60
2018-05-02T20:22:41.103Z,15.50
2018-05-02T20:25:09.085Z,15.50
2018-05-02T20:27:37.042Z,15.50
2018-05-02T20:30:05.117Z,15.40
2018-05-02T20:32:33.083Z,15.40
2018-05-02T20:35:01.062Z,15.30
2018-05-02T20:37:29.023Z,15.40
2018-05-02T20:39:56.988Z,15.30
2018-05-02T20:42:24.962Z,15.30
2018-05-02T20:44:52.925Z,15.30
2018-05-02T20:47:20.895Z,15.20
2018-05-02T20:49:48.862Z,15.20
2018-05-02T20:52:16.837Z,15.20
2018-05-02T20:54:44.813Z,15.20
2018-05-02T20:57:13.603Z,15.10
2018-05-02T20:59:41.562Z,15.10
2018-05-02T21:02:09.530Z,15.10
2018-05-02T21:04:37.507Z,15.00
2018-05-02T21:07:05.669Z,15.00
2018-05-02T21:09:33.638Z,14.90
2018-05-02T21:12:01.619Z,14.90
2018-05-02T21:14:31.273Z,14.80
2018-05-02T21:16:59.289Z,14.80
2018-05-02T21:19:27.360Z,14.80
2018-05-02T21:21:55.329Z,14.80
2018-05-02T21:24:23.297Z,14.80
2018-05-02T21:26:51.276Z,14.80
2018-05-02T21:29:19.233Z,14.80
2018-05-02T21:31:47.205Z,14.80
2018-05-02T21:34:15.186Z,14.80
2018-05-02T21:36:43.140Z,14.80
2018-05-02T21:39:11.154Z,14.90
2018-05-02T21:41:40.134Z,14.90
2018-05-02T21:44:08.183Z,14.90
2018-05-02T21:46:36.246Z,14.90
2018-05-02T21:49:04.224Z,14.80
2018-05-02T21:51:32.297Z,14.80
2018-05-02T21:54:00.254Z,14.80
2018-05-02T21:56:28.335Z,14.80
2018-05-02T21:58:56.305Z,14.80
2018-05-02T22:01:24.260Z,14.80
2018-05-02T22:03:52.242Z,14.80
2018-05-02T22:06:20.193Z,14.80
2018-05-02T22:08:48.282Z,14.70
2018-05-02T22:11:16.249Z,14.80
2018-05-02T22:13:44.220Z,14.70
2018-05-02T22:16:12.178Z,14.70
2018-05-02T22:18:40.149Z,14.70
2018-05-02T22:21:08.113Z,14.70
2018-05-02T22:23:36.083Z,14.60
2018-05-02T22:26:04.153Z,14.60
2018-05-02T22:28:32.122Z,14.60
2018-05-02T22:31:00.094Z,14.60
2018-05-02T22:33:29.601Z,14.50
2018-05-02T22:35:57.577Z,14.50
2018-05-02T22:38:25.534Z,14.50
2018-05-02T22:40:53.508Z,14.50
2018-05-02T22:43:21.477Z,14.40
2018-05-02T22:45:49.441Z,14.40
2018-05-02T22:48:17.408Z,14.40
2018-05-02T22:50:45.381Z,14.40
2018-05-02T22:53:13.358Z,14.40
2018-05-02T22:55:41.320Z,14.40
2018-05-02T22:58:09.399Z,14.40
2018-05-02T23:00:37.361Z,14.40
2018-05-02T23:03:05.329Z,14.40
2018-05-02T23:05:33.297Z,14.40
2018-05-02T23:08:01.377Z,14.40
2018-05-02T23:10:29.339Z,14.40
2018-05-02T23:12:57.307Z,14.40
2018-05-02T23:15:25.283Z,14.40
2018-05-02T23:17:53.251Z,14.40
2018-05-02T23:20:21.216Z,14.40
2018-05-02T23:22:49.183Z,14.40
2018-05-02T23:25:17.255Z,14.40
2018-05-02T23:27:45.222Z,14.40
2018-05-02T23:30:13.241Z,14.40
2018-05-02T23:32:41.987Z,14.40
2018-05-02T23:35:09.943Z,14.40
2018-05-02T23:37:37.917Z,14.40
2018-05-02T23:40:05.989Z,14.40
2018-05-02T23:42:33.957Z,14.40
2018-05-02T23:45:02.031Z,14.40
2018-05-02T23:47:29.997Z,14.40
2018-05-02T23:49:58.075Z,14.40
2018-05-02T23:52:26.036Z,14.40
2018-05-02T23:54:54.003Z,14.40
2018-05-02T23:57:21.975Z,14.40
2018-05-02T23:59:50.052Z,14.30
